Time;durP1;ratioP1;P1;durP2;ratioP2;P2;SDS_P1;SDS_P2;PMS_P1;PMS_P2;Temp;Humidity;BMP_temperature;BMP_pressure;BME280_temperature;BME280_humidity;BME280_pressure;Samples;Min_cycle;Max_cycle;Signal;HPM_P1;HPM_P2
2023/03/27 00:01:26;;;;;;;;;13.67;13.67;;;;;9.81;100.00;98002.63;6276614;20;3544027;-45
2023/03/27 00:03:55;;;;;;;;;16.00;16.00;;;;;9.76;100.00;97994.13;6311644;20;3555507;-44
2023/03/27 00:06:24;;;;;;;;;16.67;15.00;;;;;9.97;100.00;97987.91;6280044;20;3548332;-43
2023/03/27 00:08:52;;;;;;;;;16.00;14.00;;;;;10.00;100.00;97984.97;6316920;20;2798179;-45
2023/03/27 00:11:23;;;;;;;;;14.00;14.00;;;;;9.91;100.00;97972.38;6279897;20;3513938;-46
2023/03/27 00:13:53;;;;;;;;;12.33;11.00;;;;;9.87;100.00;97963.72;6310014;20;3531554;-45
2023/03/27 00:16:26;;;;;;;;;16.00;14.33;;;;;10.00;100.00;97958.16;6312383;20;3520195;-45
2023/03/27 00:18:55;;;;;;;;;15.00;12.00;;;;;10.04;100.00;97948.88;6316318;20;2804601;-44
2023/03/27 00:21:24;;;;;;;;;13.50;13.00;;;;;9.98;100.00;97944.03;6280875;20;2797312;-45
2023/03/27 00:23:53;;;;;;;;;9.00;9.00;;;;;9.97;100.00;97940.50;6280237;20;2760669;-44
2023/03/27 00:26:21;;;;;;;;;19.50;13.50;;;;;10.04;100.00;97928.25;6285822;20;2811744;-44
2023/03/27 00:28:50;;;;;;;;;12.67;12.67;;;;;9.84;100.00;97930.00;6280473;20;3530506;-44
2023/03/27 00:31:18;;;;;;;;;14.67;14.67;;;;;9.73;100.00;97932.75;6310180;20;2806592;-45
2023/03/27 00:33:47;;;;;;;;;15.00;15.00;;;;;10.01;100.00;97927.69;6310753;20;3538801;-45
2023/03/27 00:36:16;;;;;;;;;14.33;12.33;;;;;10.04;100.00;97922.06;6311754;20;3550306;-45
2023/03/27 00:39:10;;;;;;;;;12.67;11.00;;;;;9.96;100.00;97914.69;6310678;20;2790005;-47
2023/03/27 00:41:38;;;;;;;;;14.33;14.00;;;;;10.05;100.00;97907.66;6308234;20;3534644;-45
2023/03/27 00:44:36;;;;;;;;;14.67;14.67;;;;;10.06;100.00;97910.22;6312585;20;2803383;-44
2023/03/27 00:47:09;;;;;;;;;10.50;10.00;;;;;9.90;100.00;97920.59;6310499;20;2790010;-45
2023/03/27 00:49:38;;;;;;;;;17.50;13.00;;;;;9.80;100.00;97904.47;6284503;20;2812797;-46
2023/03/27 00:52:07;;;;;;;;;18.00;16.50;;;;;9.46;100.00;97901.16;6283749;20;2825312;-45
2023/03/27 00:54:38;;;;;;;;;13.33;13.33;;;;;9.54;100.00;97897.81;6281053;20;2803566;-43
2023/03/27 00:57:15;;;;;;;;;12.00;12.00;;;;;9.62;100.00;97884.63;6314761;20;3546107;-44
2023/03/27 00:59:46;;;;;;;;;18.50;16.00;;;;;9.79;100.00;97880.44;6283752;20;2814859;-45
2023/03/27 01:02:15;;;;;;;;;12.50;12.50;;;;;9.76;100.00;97876.22;6286999;20;2814913;-43
2023/03/27 01:04:45;;;;;;;;;14.67;14.67;;;;;9.80;100.00;97874.97;6284893;20;3526337;-44
2023/03/27 01:07:14;;;;;;;;;14.67;13.00;;;;;9.94;100.00;97865.72;6313931;20;3534678;-47
2023/03/27 01:09:44;;;;;;;;;15.00;15.00;;;;;9.80;100.00;97858.06;6318401;20;2807684;-44
2023/03/27 01:12:29;;;;;;;;;12.00;12.00;;;;;9.92;100.00;97853.44;6285833;20;3525339;-45
2023/03/27 01:15:48;;;;;;;;;14.33;14.00;;;;;9.72;100.00;97850.69;6312304;20;3552389;-45
2023/03/27 01:18:32;;;;;;;;;15.33;15.00;;;;;9.93;100.00;97839.91;6282435;20;3544361;-46
2023/03/27 01:21:46;;;;;;;;;18.00;15.00;;;;;10.05;100.00;97837.94;6315309;20;3542996;-45
2023/03/27 01:25:06;;;;;;;;;20.67;19.00;;;;;9.95;100.00;97826.34;6283698;20;3560702;-44
2023/03/27 01:28:02;;;;;;;;;17.00;17.00;;;;;9.98;100.00;97826.06;6311517;20;2830639;-43
2023/03/27 01:30:49;;;;;;;;;25.00;20.00;;;;;9.78;100.00;97819.81;6283946;20;2842008;-44
2023/03/27 01:34:20;;;;;;;;;28.50;24.50;;;;;9.72;100.00;97810.47;6283150;20;2835739;-46
2023/03/27 01:37:30;;;;;;;;;26.50;24.50;;;;;9.90;100.00;97797.28;6278162;20;2840972;-47
2023/03/27 01:40:17;;;;;;;;;21.00;18.33;;;;;9.83;100.00;97780.88;6280462;20;2837792;-45
2023/03/27 01:43:07;;;;;;;;;20.00;19.00;;;;;9.58;100.00;97770.63;6315141;20;2491939;-44
2023/03/27 01:46:18;;;;;;;;;28.50;23.00;;;;;9.33;100.00;97747.84;6280766;20;2500365;-44
2023/03/27 01:49:11;;;;;;;;;16.67;15.00;;;;;9.60;100.00;97752.59;6278098;20;3529937;-46
2023/03/27 01:51:50;;;;;;;;;17.67;17.00;;;;;9.52;100.00;97755.97;6311467;20;3550357;-45
2023/03/27 01:54:31;;;;;;;;;16.33;16.33;;;;;9.57;100.00;97758.25;6283609;20;3538924;-44
2023/03/27 01:57:26;;;;;;;;;21.50;20.50;;;;;9.49;100.00;97750.03;6281365;20;2836852;-48
2023/03/27 02:00:14;;;;;;;;;27.00;25.50;;;;;9.41;100.00;97759.59;6280650;20;2836763;-45
2023/03/27 02:03:21;;;;;;;;;25.00;25.00;;;;;9.64;100.00;97756.72;6280734;20;2844028;-45
2023/03/27 02:06:23;;;;;;;;;19.00;19.00;;;;;9.56;100.00;97761.91;6276343;20;2835701;-45
2023/03/27 02:09:20;;;;;;;;;18.33;18.33;;;;;9.47;100.00;97760.03;6280018;20;3563769;-47
2023/03/27 02:12:15;;;;;;;;;19.67;18.00;;;;;9.55;100.00;97750.31;6277790;20;3564875;-45
2023/03/27 02:15:15;;;;;;;;;28.00;27.00;;;;;9.52;100.00;97739.03;6277729;20;2500303;-47
2023/03/27 02:18:08;;;;;;;;;23.00;21.00;;;;;9.43;100.00;97741.56;6279566;20;2844075;-44
2023/03/27 02:20:39;;;;;;;;;20.00;16.00;;;;;9.41;100.00;97738.16;6278020;20;2500344;-46
2023/03/27 02:23:08;;;;;;;;;20.33;17.00;;;;;9.44;100.00;97732.53;6282971;20;3560697;-50
2023/03/27 02:25:43;;;;;;;;;20.00;19.50;;;;;9.50;100.00;97730.28;6284239;20;2828408;-45
2023/03/27 02:28:47;;;;;;;;;19.50;18.00;;;;;9.53;100.00;97725.53;6281249;20;2496304;-46
2023/03/27 02:32:14;;;;;;;;;19.00;15.50;;;;;9.48;100.00;97725.09;6280577;20;2498247;-44
2023/03/27 02:35:33;;;;;;;;;21.00;19.67;;;;;9.44;100.00;97729.84;6280563;20;3564913;-45
2023/03/27 02:38:43;;;;;;;;;20.00;20.00;;;;;9.46;100.00;97729.72;6282338;20;2825237;-47
2023/03/27 02:41:55;;;;;;;;;17.67;17.67;;;;;9.53;100.00;97727.34;6278335;20;3559734;-47
2023/03/27 02:44:36;;;;;;;;;17.00;14.00;;;;;9.52;100.00;97715.78;6284069;20;2811921;-44
2023/03/27 02:47:32;;;;;;;;;19.00;18.00;;;;;9.19;100.00;97700.88;6285635;20;2829464;-45
2023/03/27 02:50:13;;;;;;;;;17.33;17.33;;;;;9.32;100.00;97697.94;6281847;20;3564832;-45
2023/03/27 02:52:59;;;;;;;;;23.50;20.00;;;;;9.19;100.00;97690.16;6281097;20;2496068;-47
2023/03/27 02:55:40;;;;;;;;;19.50;17.00;;;;;9.33;100.00;97684.44;6278756;20;2491978;-45
2023/03/27 02:58:18;;;;;;;;;22.00;18.00;;;;;8.96;100.00;97678.78;6281306;20;2829474;-45
2023/03/27 03:00:50;;;;;;;;;25.00;21.00;;;;;9.08;100.00;97663.47;6280280;20;2850383;-47
2023/03/27 03:03:40;;;;;;;;;16.00;16.00;;;;;9.11;100.00;97663.19;6281366;20;2500416;-44
2023/03/27 03:06:09;;;;;;;;;24.00;19.00;;;;;9.07;100.00;97669.81;6278726;20;2500308;-45
2023/03/27 03:08:38;;;;;;;;;22.00;22.00;;;;;9.00;100.00;97665.00;6282312;20;2832608;-44
2023/03/27 03:11:12;;;;;;;;;21.50;19.50;;;;;9.19;100.00;97663.41;6275624;20;2500252;-44
2023/03/27 03:13:40;;;;;;;;;20.00;19.50;;;;;8.99;100.00;97665.97;6281524;20;2825708;-46
2023/03/27 03:16:09;;;;;;;;;24.00;21.00;;;;;9.04;100.00;97665.59;6279847;20;2500305;-44
2023/03/27 03:18:37;;;;;;;;;21.00;20.00;;;;;9.21;100.00;97656.06;6280836;20;2500270;-45
2023/03/27 03:21:05;;;;;;;;;22.50;21.50;;;;;8.96;100.00;97663.56;6275463;20;2500389;-46
2023/03/27 03:23:35;;;;;;;;;38.33;32.33;;;;;9.08;100.00;97660.78;6280363;20;3609685;-46
2023/03/27 03:26:05;;;;;;;;;46.67;39.33;;;;;9.01;100.00;97660.50;6313675;20;2859650;-45
2023/03/27 03:28:34;;;;;;;;;28.00;27.00;;;;;9.12;100.00;97665.75;6314914;20;2850317;-44
2023/03/27 03:31:04;;;;;;;;;24.50;24.00;;;;;9.09;100.00;97663.34;6280089;20;2840929;-47
2023/03/27 03:33:33;;;;;;;;;20.50;19.00;;;;;9.10;100.00;97669.53;6283830;20;2829451;-45
2023/03/27 03:36:03;;;;;;;;;26.00;24.00;;;;;9.06;100.00;97665.44;6280363;20;2846241;-46
2023/03/27 03:38:34;;;;;;;;;19.50;18.50;;;;;9.14;100.00;97669.16;6284403;20;2830444;-45
2023/03/27 03:41:06;;;;;;;;;22.50;20.00;;;;;9.09;100.00;97667.88;6279486;20;2844117;-45
2023/03/27 03:43:34;;;;;;;;;19.00;17.50;;;;;9.21;100.00;97666.75;6284507;20;2827369;-45
2023/03/27 03:46:02;;;;;;;;;22.50;21.50;;;;;9.11;100.00;97660.53;6278796;20;2500283;-45
2023/03/27 03:48:31;;;;;;;;;25.50;19.00;;;;;8.99;100.00;97655.28;6275489;20;2846196;-46
2023/03/27 03:51:00;;;;;;;;;29.00;28.50;;;;;8.86;100.00;97649.31;6279845;20;2846450;-47
2023/03/27 03:53:29;;;;;;;;;14.67;14.67;;;;;8.88;100.00;97652.69;6283086;20;3537125;-47
2023/03/27 03:55:57;;;;;;;;;23.00;19.00;;;;;8.84;100.00;97648.59;6312338;20;2842068;-47
2023/03/27 03:58:26;;;;;;;;;26.00;24.00;;;;;8.78;100.00;97649.97;6280487;20;2838892;-46
2023/03/27 04:01:03;;;;;;;;;23.00;20.00;;;;;8.84;100.00;97643.22;6281572;20;2846186;-44
2023/03/27 04:03:32;;;;;;;;;22.50;20.00;;;;;8.83;100.00;97635.34;6281233;20;2827389;-46
2023/03/27 04:06:06;;;;;;;;;22.50;21.00;;;;;8.83;100.00;97635.34;6283129;20;2844033;-46
2023/03/27 04:08:35;;;;;;;;;44.33;37.67;;;;;8.90;100.00;97637.38;6282110;20;2860836;-45
2023/03/27 04:11:05;;;;;;;;;39.00;35.50;;;;;8.85;100.00;97634.25;6309264;20;2852407;-46
2023/03/27 04:13:34;;;;;;;;;30.00;27.00;;;;;8.88;100.00;97631.28;6274812;20;2854467;-46
2023/03/27 04:16:04;;;;;;;;;36.67;34.00;;;;;8.72;100.00;97641.66;6277226;20;2853483;-46
2023/03/27 04:18:36;;;;;;;;;34.00;30.00;;;;;8.96;100.00;97644.00;6312444;20;2867014;-48
2023/03/27 04:21:13;;;;;;;;;44.00;36.00;;;;;8.93;100.00;97642.44;6314119;20;3606613;-44
2023/03/27 04:23:44;;;;;;;;;32.50;32.50;;;;;8.97;100.00;97643.00;6276394;20;2850302;-43
2023/03/27 04:26:14;;;;;;;;;37.00;34.33;;;;;9.04;100.00;97649.53;6277640;20;2857684;-45
2023/03/27 04:28:44;;;;;;;;;29.33;25.33;;;;;9.26;100.00;97648.47;6311467;20;2854505;-43
2023/03/27 04:31:13;;;;;;;;;24.33;23.00;;;;;9.07;100.00;97649.25;6312679;20;3589880;-55
2023/03/27 04:33:45;;;;;;;;;27.00;25.00;;;;;9.05;100.00;97658.41;6307868;20;2848189;-54
2023/03/27 04:36:15;;;;;;;;;35.00;24.67;;;;;8.98;100.00;97648.25;6277364;20;3612756;-55
2023/03/27 04:38:44;;;;;;;;;26.50;26.00;;;;;8.88;100.00;97646.50;6312947;20;2840921;-52
2023/03/27 04:41:13;;;;;;;;;32.00;26.67;;;;;8.99;100.00;97647.25;6280782;20;3606591;-55
2023/03/27 04:43:42;;;;;;;;;27.50;23.50;;;;;9.00;100.00;97646.28;6278407;20;2836807;-56
2023/03/27 04:46:11;;;;;;;;;32.00;30.00;;;;;9.13;100.00;97639.81;6279182;20;2857611;-53
2023/03/27 04:48:40;;;;;;;;;26.50;26.50;;;;;8.97;100.00;97643.00;6280014;20;2846169;-56
2023/03/27 04:51:09;;;;;;;;;33.33;31.67;;;;;8.90;100.00;97632.00;6278045;20;2862945;-55
2023/03/27 04:53:41;;;;;;;;;32.67;29.67;;;;;8.83;100.00;97640.69;6308881;20;2861772;-57
2023/03/27 04:56:11;;;;;;;;;30.67;26.00;;;;;8.64;100.00;97636.13;6313088;20;3589921;-56
2023/03/27 04:58:45;;;;;;;;;34.33;31.67;;;;;8.57;100.00;97631.28;6279197;20;3604414;-54
2023/03/27 05:01:16;;;;;;;;;53.33;42.00;;;;;8.84;100.00;97629.84;6310846;20;2865917;-56
2023/03/27 05:03:47;;;;;;;;;30.00;29.33;;;;;8.40;100.00;97629.22;6311787;20;2856621;-58
2023/03/27 05:06:17;;;;;;;;;26.67;22.33;;;;;8.28;100.00;97620.38;6310142;20;2858682;-56
2023/03/27 05:08:48;;;;;;;;;51.33;42.00;;;;;8.50;100.00;97623.91;6311963;20;2874381;-54
2023/03/27 05:11:17;;;;;;;;;47.50;41.50;;;;;8.61;100.00;97614.94;6309233;20;2856525;-56
2023/03/27 05:13:46;;;;;;;;;33.67;33.67;;;;;8.62;100.00;97616.66;6281348;20;2857711;-54
2023/03/27 05:16:16;;;;;;;;;31.00;26.50;;;;;8.43;100.00;97620.09;6308947;20;2847147;-57
2023/03/27 05:18:45;;;;;;;;;40.67;33.67;;;;;8.36;100.00;97606.34;6279871;20;2845064;-57
2023/03/27 05:21:14;;;;;;;;;39.67;34.00;;;;;8.23;100.00;97595.84;6311197;20;3589856;-59
2023/03/27 05:23:44;;;;;;;;;30.00;28.33;;;;;8.28;100.00;97604.34;6277866;20;2852450;-55
2023/03/27 05:26:12;;;;;;;;;49.33;38.67;;;;;8.36;100.00;97595.66;6314084;20;3612728;-54
2023/03/27 05:28:41;;;;;;;;;28.00;19.00;;;;;8.27;100.00;97602.66;6276927;20;2848173;-56
2023/03/27 05:31:11;;;;;;;;;55.00;45.00;;;;;8.21;100.00;97599.63;6277511;20;2853420;-57
2023/03/27 05:33:40;;;;;;;;;40.00;34.67;;;;;8.17;100.00;97592.88;6280728;20;2860695;-55
2023/03/27 05:36:10;;;;;;;;;51.50;41.00;;;;;8.35;100.00;97596.66;6315752;20;2845074;-56
2023/03/27 05:38:41;;;;;;;;;55.67;44.00;;;;;8.35;100.00;97594.81;6285395;20;2874572;-55
2023/03/27 05:41:10;;;;;;;;;41.33;36.67;;;;;8.41;100.00;97588.13;6313858;20;2863252;-51
2023/03/27 05:43:39;;;;;;;;;51.50;39.50;;;;;8.45;100.00;97594.03;6315230;20;2882575;-56
2023/03/27 05:46:09;;;;;;;;;68.00;53.00;;;;;8.55;100.00;97590.44;6285455;20;2883680;-56
2023/03/27 05:48:38;;;;;;;;;45.00;38.00;;;;;8.42;100.00;97581.78;6314324;20;2853570;-55
2023/03/27 05:51:11;;;;;;;;;39.00;34.50;;;;;8.44;100.00;97577.16;6284626;20;2854462;-58
2023/03/27 05:53:41;;;;;;;;;28.67;28.33;;;;;8.35;100.00;97567.25;6282605;20;3602424;-54
2023/03/27 05:56:09;;;;;;;;;39.00;34.67;;;;;8.33;100.00;97574.53;6314928;20;3591956;-55
2023/03/27 05:58:41;;;;;;;;;32.38;29.75;;;;;8.44;100.00;97574.47;6341414;20;3584743;-56
2023/03/27 06:01:10;;;;;;;;;33.67;31.67;;;;;8.38;100.00;97569.66;6313380;20;3602342;-57
2023/03/27 06:03:38;;;;;;;;;30.33;30.33;;;;;8.45;100.00;97570.84;6298761;20;3597248;-53
2023/03/27 06:06:12;;;;;;;;;39.00;30.00;;;;;8.35;100.00;97561.91;6282339;20;2882570;-56
2023/03/27 06:08:42;;;;;;;;;32.67;31.00;;;;;8.45;100.00;97559.28;6318018;20;3584732;-56
2023/03/27 06:11:13;;;;;;;;;27.00;26.00;;;;;8.52;100.00;97558.59;6280246;20;2840934;-57
2023/03/27 06:13:43;;;;;;;;;29.50;27.00;;;;;8.56;100.00;97559.22;6282998;20;2851348;-56
2023/03/27 06:16:11;;;;;;;;;30.00;26.50;;;;;8.47;100.00;97550.13;6281393;20;2856503;-56
2023/03/27 06:18:40;;;;;;;;;18.00;13.33;;;;;8.36;100.00;97551.03;6284603;20;3533641;-55
2023/03/27 06:21:09;;;;;;;;;28.00;25.00;;;;;8.42;100.00;97552.38;6316255;20;3585775;-53
2023/03/27 06:23:38;;;;;;;;;50.00;43.00;;;;;8.30;100.00;97542.72;6275211;20;2861884;-57
2023/03/27 06:26:06;;;;;;;;;32.00;27.00;;;;;8.30;100.00;97548.91;6282376;20;2848198;-58
2023/03/27 06:28:37;;;;;;;;;40.00;36.00;;;;;8.33;100.00;97550.47;6283850;20;2852390;-56
2023/03/27 06:31:07;;;;;;;;;51.33;43.33;;;;;8.45;100.00;97557.47;6280488;20;2861818;-53
2023/03/27 06:33:38;;;;;;;;;55.50;45.50;;;;;8.16;100.00;97548.41;6310360;20;2853534;-56
2023/03/27 06:36:08;;;;;;;;;25.00;23.00;;;;;8.25;100.00;97547.63;6281383;20;2832674;-56
2023/03/27 06:38:37;;;;;;;;;25.00;23.50;;;;;8.32;100.00;97546.09;6281500;20;2834801;-53
2023/03/27 06:41:06;;;;;;;;;22.50;22.50;;;;;8.39;100.00;97541.06;6283611;20;2850376;-53
2023/03/27 06:43:35;;;;;;;;;31.00;30.00;;;;;8.47;100.00;97539.44;6283813;20;2795091;-53
2023/03/27 06:46:06;;;;;;;;;20.00;17.50;;;;;8.50;100.00;97541.84;6283229;20;2830505;-57
2023/03/27 06:48:36;;;;;;;;;32.67;28.33;;;;;8.47;100.00;97533.25;6283694;20;2862840;-51
2023/03/27 06:51:05;;;;;;;;;26.00;25.50;;;;;8.46;100.00;97537.75;6315655;20;3520269;-58
2023/03/27 06:53:33;;;;;;;;;29.00;29.00;;;;;8.62;100.00;97531.91;6312550;20;2500307;-57
2023/03/27 06:56:08;;;;;;;;;62.33;50.33;;;;;8.44;100.00;97530.84;6283224;20;2876480;-55
2023/03/27 06:58:37;;;;;;;;;61.00;46.00;;;;;8.50;100.00;97522.28;6307979;20;3630486;-57
2023/03/27 07:01:07;;;;;;;;;45.33;40.33;;;;;8.49;100.00;97521.44;6312622;20;2859736;-58
2023/03/27 07:03:37;;;;;;;;;62.67;51.00;;;;;8.48;100.00;97525.09;6315062;20;2862772;-53
2023/03/27 07:06:06;;;;;;;;;47.67;38.33;;;;;8.57;100.00;97524.28;6319853;20;3603403;-56
2023/03/27 07:08:35;;;;;;;;;54.00;45.00;;;;;8.41;100.00;97518.59;6286555;20;2853438;-59
2023/03/27 07:11:04;;;;;;;;;24.50;22.50;;;;;8.55;100.00;97523.56;6283968;20;2832600;-54
2023/03/27 07:13:40;;;;;;;;;33.33;28.33;;;;;8.72;100.00;97526.59;6282860;20;2867019;-57
2023/03/27 07:16:10;;;;;;;;;31.00;25.00;;;;;8.54;100.00;97529.06;6315545;20;2858767;-54
2023/03/27 07:18:40;;;;;;;;;65.00;49.67;;;;;8.69;100.00;97521.50;6281535;20;3638793;-54
2023/03/27 07:21:11;;;;;;;;;51.00;38.33;;;;;8.65;100.00;97533.47;6310459;20;2857642;-58
2023/03/27 07:23:40;;;;;;;;;29.00;25.00;;;;;8.62;100.00;97536.41;6317846;20;3590949;-60
2023/03/27 07:26:10;;;;;;;;;49.50;43.00;;;;;8.52;100.00;97537.22;6280690;20;2500282;-54
2023/03/27 07:28:39;;;;;;;;;22.50;21.50;;;;;8.64;100.00;97535.31;6280337;20;2826441;-53
2023/03/27 07:31:12;;;;;;;;;24.00;22.00;;;;;8.50;100.00;97538.31;6283357;20;3577362;-57
2023/03/27 07:34:00;;;;;;;;;18.67;15.67;;;;;8.66;100.00;97537.81;6284231;20;3531509;-54
2023/03/27 07:36:29;;;;;;;;;16.00;16.00;;;;;8.66;100.00;97537.81;6312549;20;2500304;-55
2023/03/27 07:38:59;;;;;;;;;46.67;36.67;;;;;8.65;100.00;97528.13;6282469;20;3624272;-55
2023/03/27 07:41:30;;;;;;;;;16.00;13.00;;;;;8.48;100.00;97535.81;6313599;20;2801450;-49
2023/03/27 07:43:59;;;;;;;;;25.50;21.00;;;;;8.47;100.00;97528.75;6313373;20;2644199;-53
2023/03/27 07:46:28;;;;;;;;;38.33;34.67;;;;;8.51;100.00;97530.19;6318170;20;3589923;-56
2023/03/27 07:48:57;;;;;;;;;22.00;22.00;;;;;8.55;100.00;97536.09;6284128;20;2704530;-55
2023/03/27 07:51:26;;;;;;;;;35.00;33.50;;;;;8.69;100.00;97537.56;6310351;20;2841972;-51
2023/03/27 07:53:57;;;;;;;;;34.00;30.00;;;;;8.82;100.00;97527.47;6284319;20;2858628;-53
2023/03/27 07:56:26;;;;;;;;;31.00;26.00;;;;;8.84;100.00;97530.84;6283014;20;2853608;-58
2023/03/27 07:58:55;;;;;;;;;21.00;19.00;;;;;8.77;100.00;97527.88;6280214;20;2835705;-52
2023/03/27 08:01:27;;;;;;;;;25.00;23.50;;;;;8.63;100.00;97522.88;6281865;20;2842107;-54
2023/03/27 08:03:56;;;;;;;;;20.00;19.00;;;;;8.52;100.00;97523.84;6282501;20;3563791;-59
2023/03/27 08:06:26;;;;;;;;;21.33;19.33;;;;;8.65;100.00;97518.25;6284289;20;3584845;-53
2023/03/27 08:08:55;;;;;;;;;17.00;17.00;;;;;8.63;100.00;97516.69;6279902;20;3560667;-53
2023/03/27 08:11:24;;;;;;;;;21.00;21.00;;;;;8.73;100.00;97520.25;6281063;20;2826346;-55
2023/03/27 08:13:58;;;;;;;;;28.50;24.50;;;;;8.74;100.00;97519.25;6281751;20;2856606;-54
2023/03/27 08:16:28;;;;;;;;;28.67;28.00;;;;;8.63;100.00;97528.25;6283963;20;2852392;-54
2023/03/27 08:19:00;;;;;;;;;70.00;57.33;;;;;8.94;100.00;97533.56;6308817;20;2869184;-56
2023/03/27 08:21:32;;;;;;;;;38.67;34.33;;;;;8.89;100.00;97544.66;6313262;20;2865010;-54
2023/03/27 08:24:03;;;;;;;;;31.33;31.33;;;;;8.72;100.00;97537.31;6314698;20;3606601;-56
2023/03/27 08:26:33;;;;;;;;;75.00;52.33;;;;;8.71;100.00;97528.41;6279144;20;3638802;-54
2023/03/27 08:29:03;;;;;;;;;26.00;23.50;;;;;8.55;100.00;97538.78;6278069;20;2846308;-56
2023/03/27 08:31:33;;;;;;;;;27.33;27.00;;;;;8.67;100.00;97534.19;6279981;20;3594002;-55
2023/03/27 08:34:02;;;;;;;;;30.00;24.50;;;;;8.58;100.00;97535.81;6314436;20;2845084;-55
2023/03/27 08:36:33;;;;;;;;;26.33;25.33;;;;;8.64;100.00;97550.50;6281401;20;2848390;-52
2023/03/27 08:39:02;;;;;;;;;19.00;19.00;;;;;8.57;100.00;97555.53;6313249;20;3570484;-54
2023/03/27 08:41:41;;;;;;;;;33.67;28.33;;;;;8.48;100.00;97548.34;6312983;20;2860836;-50
2023/03/27 08:44:20;;;;;;;;;112.50;100.50;;;;;8.64;100.00;97555.88;6305393;20;1949370;-53
2023/03/27 08:47:26;;;;;;;;;88.00;66.00;;;;;8.51;100.00;97550.75;6279159;20;3671135;-58
2023/03/27 08:49:58;;;;;;;;;55.67;44.67;;;;;8.59;100.00;97553.59;6281038;20;2875294;-48
2023/03/27 08:52:32;;;;;;;;;52.33;42.67;;;;;8.53;100.00;97551.44;6310200;20;2871134;-52
2023/03/27 08:55:21;;;;;;;;;69.33;56.33;;;;;8.77;100.00;97561.81;6310198;20;3621096;-54
2023/03/27 08:57:50;;;;;;;;;24.33;23.67;;;;;8.77;100.00;97559.16;6315351;20;3574271;-53
2023/03/27 09:00:25;;;;;;;;;32.33;30.00;;;;;8.82;100.00;97570.28;6315980;20;3572213;-53
2023/03/27 09:03:17;;;;;;;;;40.00;36.00;;;;;8.83;100.00;97571.13;6313523;20;3598167;-56
2023/03/27 09:06:08;;;;;;;;;28.67;26.00;;;;;8.83;100.00;97571.97;6278606;20;3628509;-55
2023/03/27 09:09:02;;;;;;;;;25.00;20.33;;;;;8.81;100.00;97583.78;6314566;20;3594040;-57
2023/03/27 09:12:04;;;;;;;;;37.33;32.33;;;;;8.95;100.00;97581.59;6281469;20;2858692;-53
2023/03/27 09:14:45;;;;;;;;;28.00;25.00;;;;;8.89;100.00;97571.41;6316738;20;2847178;-56
2023/03/27 09:17:43;;;;;;;;;51.33;40.33;;;;;8.90;100.00;97577.63;6287118;20;3629409;-53
2023/03/27 09:20:35;;;;;;;;;39.00;34.00;;;;;8.86;100.00;97581.56;6317257;20;2853507;-55
2023/03/27 09:23:17;;;;;;;;;35.00;31.50;;;;;8.88;100.00;97579.59;6284526;20;2841955;-57
2023/03/27 09:26:05;;;;;;;;;15.00;13.00;;;;;8.77;100.00;97577.88;6285674;20;2813843;-56
2023/03/27 09:29:10;;;;;;;;;11.33;11.33;;;;;8.89;100.00;97574.09;6282932;20;2794231;-56
2023/03/27 09:31:50;;;;;;;;;6.50;6.50;;;;;8.57;100.00;97575.09;6319079;20;2743043;-57
2023/03/27 09:34:33;;;;;;;;;15.00;15.00;;;;;8.66;100.00;97576.16;6282469;20;3541950;-51
2023/03/27 09:37:01;;;;;;;;;9.00;9.00;;;;;8.95;100.00;97578.94;6316531;20;2751360;-56
2023/03/27 09:39:33;;;;;;;;;7.00;7.00;;;;;9.04;100.00;97584.44;6302585;20;1808635;-57
2023/03/27 09:42:18;;;;;;;;;12.00;11.00;;;;;9.26;100.00;97588.72;6314513;20;2787809;-55
2023/03/27 09:44:54;;;;;;;;;9.00;9.00;;;;;9.15;100.00;97587.84;6285317;20;2754892;-53
2023/03/27 09:48:00;;;;;;;;;8.00;5.50;;;;;9.06;100.00;97590.47;6284175;20;2740946;-55
2023/03/27 09:50:40;;;;;;;;;7.00;7.00;;;;;9.02;100.00;97596.09;6286081;20;2739920;-54
2023/03/27 09:53:21;;;;;;;;;8.00;6.00;;;;;9.16;100.00;97599.38;6285865;20;2740958;-56
2023/03/27 09:56:01;;;;;;;;;13.50;10.50;;;;;8.95;100.00;97603.00;6320103;20;2786859;-57
2023/03/27 09:58:45;;;;;;;;;9.50;9.50;;;;;9.05;100.00;97602.19;6288630;20;2764892;-53
2023/03/27 10:01:33;;;;;;;;;8.00;8.00;;;;;8.70;100.00;97598.13;6286434;20;2746204;-59
2023/03/27 10:04:19;;;;;;;;;12.00;11.67;;;;;8.82;100.00;97606.88;6314464;20;2814874;-55
2023/03/27 10:07:09;;;;;;;;;22.67;18.67;;;;;8.83;100.00;97613.94;6316015;20;3575258;-55
2023/03/27 10:09:39;;;;;;;;;29.50;26.50;;;;;8.81;100.00;97619.41;6285944;20;2857601;-54
2023/03/27 10:12:18;;;;;;;;;51.50;44.00;;;;;8.79;100.00;97619.56;6285345;20;2843026;-54
2023/03/27 10:14:51;;;;;;;;;53.00;45.00;;;;;8.90;100.00;97610.59;6280725;20;2864865;-56
2023/03/27 10:17:37;;;;;;;;;22.00;22.00;;;;;8.93;100.00;97612.16;6286010;20;2856652;-57
2023/03/27 10:20:18;;;;;;;;;25.00;23.50;;;;;8.89;100.00;97611.56;6281339;20;2852453;-55
2023/03/27 10:23:06;;;;;;;;;20.00;19.00;;;;;8.66;100.00;97600.22;6288720;20;3563789;-58
2023/03/27 10:25:40;;;;;;;;;36.67;33.67;;;;;8.77;100.00;97609.97;6282668;20;2857595;-55
2023/03/27 10:28:23;;;;;;;;;17.67;15.67;;;;;8.74;100.00;97612.91;6313928;20;3567062;-54
2023/03/27 10:31:09;;;;;;;;;21.67;17.00;;;;;8.72;100.00;97609.53;6282676;20;3560751;-54
2023/03/27 10:33:41;;;;;;;;;42.67;37.00;;;;;8.76;100.00;97625.16;6281851;20;2867073;-61
2023/03/27 10:36:11;;;;;;;;;36.00;30.67;;;;;8.48;100.00;97618.72;6315918;20;2859714;-61
2023/03/27 10:38:42;;;;;;;;;20.00;20.00;;;;;8.49;100.00;97628.41;6315239;20;3570093;-61
2023/03/27 10:41:16;;;;;;;;;14.00;14.00;;;;;8.39;100.00;97627.50;6283226;20;2808639;-61
2023/03/27 10:43:57;;;;;;;;;17.50;16.50;;;;;8.55;100.00;97627.88;6282657;20;2819045;-61
2023/03/27 10:46:30;;;;;;;;;37.67;33.33;;;;;8.49;100.00;97636.44;6285388;20;3608605;-61
2023/03/27 10:49:43;;;;;;;;;9.50;9.50;;;;;8.45;100.00;97631.47;6310470;20;2770457;-61
2023/03/27 10:52:28;;;;;;;;;29.50;26.50;;;;;8.13;100.00;97627.88;6282669;20;2854540;-61
2023/03/27 10:55:14;;;;;;;;;14.50;11.00;;;;;8.13;100.00;97633.22;6283331;20;2796101;-61
2023/03/27 10:57:52;;;;;;;;;12.00;10.67;;;;;8.27;100.00;97632.06;6283678;20;3518119;-61
2023/03/27 11:00:39;;;;;;;;;12.00;10.00;;;;;8.08;100.00;97640.81;6310385;20;2782600;-61
2023/03/27 11:03:50;;;;;;;;;51.00;39.33;;;;;8.19;100.00;97639.00;6282988;20;2871103;-61
2023/03/27 11:06:21;;;;;;;;;17.50;17.00;;;;;8.39;100.00;97640.00;6311275;20;2496104;-61
2023/03/27 11:09:08;;;;;;;;;21.00;17.00;;;;;8.17;100.00;97651.69;6283625;20;3564872;-61
2023/03/27 11:11:52;;;;;;;;;20.00;17.33;;;;;8.22;100.00;97657.50;6279436;20;3558614;-60
2023/03/27 11:14:35;;;;;;;;;11.00;10.00;;;;;8.29;100.00;97667.53;6283151;20;2796239;-60
2023/03/27 11:17:07;;;;;;;;;12.00;11.50;;;;;8.42;100.00;97674.53;6315838;20;2789846;-61
2023/03/27 11:19:52;;;;;;;;;10.50;9.00;;;;;8.55;100.00;97673.34;6283237;20;2764896;-60
2023/03/27 11:22:41;;;;;;;;;32.00;24.50;;;;;8.55;100.00;97670.66;6281362;20;2856658;-61
2023/03/27 11:25:32;;;;;;;;;24.50;21.00;;;;;8.55;100.00;97676.03;6282753;20;2825338;-61
2023/03/27 11:28:30;;;;;;;;;22.50;21.50;;;;;8.63;100.00;97683.38;6280532;20;2500434;-60
2023/03/27 11:31:50;;;;;;;;;14.67;13.00;;;;;8.50;100.00;97680.91;6279835;20;3536708;-61
2023/03/27 11:34:51;;;;;;;;;56.50;45.00;;;;;8.49;100.00;97675.72;6280409;20;2848185;-61
2023/03/27 11:37:52;;;;;;;;;24.50;24.50;;;;;8.57;100.00;97679.41;6282986;20;2848277;-60
2023/03/27 11:40:36;;;;;;;;;49.33;36.67;;;;;8.59;100.00;97681.13;6283088;20;3626322;-60
2023/03/27 11:43:05;;;;;;;;;32.00;27.00;;;;;8.25;100.00;97689.31;6312561;20;2854450;-60
2023/03/27 11:46:28;;;;;;;;;62.00;47.67;;;;;8.35;100.00;97685.72;6282153;20;3626312;-60
2023/03/27 11:49:37;;;;;;;;;20.00;18.00;;;;;8.33;100.00;97694.84;6310195;20;2831521;-60